createdAt,value
2023-04-17T00:00:06.150Z,9.08
2023-04-17T00:01:08.519Z,9.04
2023-04-17T00:02:10.793Z,8.94
2023-04-17T00:03:14.219Z,8.95
2023-04-17T00:04:16.660Z,8.87
2023-04-17T00:05:23.078Z,8.77
2023-04-17T00:06:27.299Z,8.74
2023-04-17T00:07:29.542Z,8.70
2023-04-17T00:08:32.642Z,8.72
2023-04-17T00:09:34.844Z,8.74
2023-04-17T00:10:37.026Z,8.75
2023-04-17T00:11:39.512Z,8.70
2023-04-17T00:12:41.663Z,8.68
2023-04-17T00:13:44.019Z,8.62
2023-04-17T00:14:46.195Z,8.63
2023-04-17T00:15:48.381Z,8.70
2023-04-17T00:16:50.795Z,8.66
2023-04-17T00:17:53.008Z,8.67
2023-04-17T00:18:55.693Z,8.76
2023-04-17T00:19:57.906Z,8.71
2023-04-17T00:21:00.220Z,8.70
2023-04-17T00:22:02.545Z,8.74
2023-04-17T00:23:04.773Z,8.62
2023-04-17T00:24:07.264Z,8.70
2023-04-17T00:25:14.726Z,8.76
2023-04-17T00:26:16.969Z,8.70
2023-04-17T00:27:19.340Z,8.69
2023-04-17T00:28:21.536Z,8.74
2023-04-17T00:29:24.175Z,8.84
2023-04-17T00:30:26.348Z,8.89
2023-04-17T00:31:28.685Z,9.02
2023-04-17T00:32:31.563Z,9.12
2023-04-17T00:33:34.218Z,9.24
2023-04-17T00:34:36.373Z,9.32
2023-04-17T00:35:38.556Z,9.38
2023-04-17T00:36:40.859Z,9.33
2023-04-17T00:37:43.056Z,9.34
2023-04-17T00:38:45.374Z,9.39
2023-04-17T00:39:47.554Z,9.36
2023-04-17T00:40:51.643Z,9.42
2023-04-17T00:41:54.276Z,9.39
2023-04-17T00:43:03.985Z,9.39
2023-04-17T00:44:06.449Z,9.36
2023-04-17T00:45:10.916Z,9.26
2023-04-17T00:46:13.570Z,9.31
2023-04-17T00:47:15.838Z,9.37
2023-04-17T00:48:18.519Z,9.43
2023-04-17T00:49:20.762Z,9.34
2023-04-17T00:50:23.330Z,9.37
2023-04-17T00:51:25.768Z,9.38
2023-04-17T00:52:29.935Z,9.40
2023-04-17T00:53:32.893Z,9.46
2023-04-17T00:54:35.453Z,9.42
2023-04-17T00:55:39.445Z,9.37
2023-04-17T00:56:43.613Z,9.38
2023-04-17T00:57:48.071Z,9.39
2023-04-17T00:58:51.015Z,9.43
2023-04-17T00:59:54.186Z,9.51
2023-04-17T01:00:56.392Z,9.57
2023-04-17T01:01:59.517Z,9.54
2023-04-17T01:03:02.044Z,9.51
2023-04-17T01:04:07.577Z,9.32
2023-04-17T01:05:10.199Z,9.13
2023-04-17T01:06:12.789Z,9.16
2023-04-17T01:07:17.370Z,8.99
2023-04-17T01:08:19.985Z,8.95
2023-04-17T01:09:22.907Z,8.97
2023-04-17T01:10:25.187Z,8.87
2023-04-17T01:11:28.234Z,9.00
2023-04-17T01:12:31.686Z,9.11
2023-04-17T01:13:34.115Z,9.03
2023-04-17T01:14:36.606Z,9.14
2023-04-17T01:15:38.814Z,9.10
2023-04-17T01:16:42.060Z,9.12
2023-04-17T01:17:44.371Z,9.14
2023-04-17T01:18:48.210Z,8.95
2023-04-17T01:19:50.686Z,8.82
2023-04-17T01:20:52.823Z,8.79
2023-04-17T01:21:55.210Z,8.71
2023-04-17T01:22:59.205Z,8.69
2023-04-17T01:24:04.626Z,8.81
2023-04-17T01:25:07.151Z,8.89
2023-04-17T01:26:16.524Z,9.01
2023-04-17T01:27:22.292Z,8.89
2023-04-17T01:28:24.562Z,8.91
2023-04-17T01:29:26.865Z,8.94
2023-04-17T01:30:30.615Z,9.06
2023-04-17T01:31:42.244Z,9.10
2023-04-17T01:32:44.403Z,9.07
2023-04-17T01:33:47.081Z,9.06
2023-04-17T01:34:49.414Z,9.10
2023-04-17T01:35:51.657Z,9.15
2023-04-17T01:36:54.396Z,9.05
2023-04-17T01:37:56.606Z,9.04
2023-04-17T01:38:58.977Z,8.94
2023-04-17T01:40:01.214Z,8.95
2023-04-17T01:41:09.573Z,8.96
2023-04-17T01:42:11.840Z,8.93
2023-04-17T01:43:14.084Z,8.83
2023-04-17T01:44:16.223Z,8.76
2023-04-17T01:45:18.393Z,8.83
2023-04-17T01:46:20.912Z,8.95
2023-04-17T01:47:24.490Z,8.97
2023-04-17T01:48:27.442Z,9.06
2023-04-17T01:49:29.762Z,9.14
2023-04-17T01:50:31.991Z,9.17
2023-04-17T01:51:34.195Z,9.27
2023-04-17T01:52:36.495Z,9.24
2023-04-17T01:53:39.449Z,9.32
2023-04-17T01:54:41.821Z,9.35
2023-04-17T01:55:44.393Z,9.36
2023-04-17T01:56:46.668Z,9.36
2023-04-17T01:57:49.807Z,9.39
2023-04-17T01:58:52.052Z,9.46
2023-04-17T01:59:55.974Z,9.47
2023-04-17T02:02:10.119Z,9.28
2023-04-17T02:03:12.776Z,9.26
2023-04-17T02:04:15.373Z,9.32
2023-04-17T02:05:17.732Z,9.35
2023-04-17T02:06:19.995Z,9.29
2023-04-17T02:07:22.676Z,9.30
2023-04-17T02:08:24.982Z,9.29
2023-04-17T02:09:27.240Z,9.30
2023-04-17T02:10:29.924Z,9.26
2023-04-17T02:11:32.144Z,9.18
2023-04-17T02:12:34.294Z,9.00
2023-04-17T02:13:36.579Z,8.95
2023-04-17T02:14:38.773Z,8.94
2023-04-17T02:15:41.835Z,8.99
2023-04-17T02:16:45.716Z,9.07
2023-04-17T02:17:47.872Z,9.12
2023-04-17T02:18:51.344Z,9.15
2023-04-17T02:19:53.669Z,9.09
2023-04-17T02:20:55.872Z,9.08
2023-04-17T02:21:57.998Z,9.09
2023-04-17T02:23:01.769Z,9.14
2023-04-17T02:24:06.810Z,9.13
2023-04-17T02:25:09.210Z,9.18
2023-04-17T02:26:11.536Z,9.13
2023-04-17T02:27:13.697Z,9.13
2023-04-17T02:28:18.921Z,9.14
2023-04-17T02:29:21.163Z,9.12
2023-04-17T02:30:27.121Z,9.13
2023-04-17T02:31:31.644Z,9.11
2023-04-17T02:32:34.157Z,9.05
2023-04-17T02:33:37.692Z,8.90
2023-04-17T02:34:40.639Z,8.92
2023-04-17T02:35:42.935Z,8.94
2023-04-17T02:36:45.211Z,8.94
2023-04-17T02:37:48.841Z,8.96
2023-04-17T02:38:51.116Z,8.94
2023-04-17T02:39:54.327Z,8.94
2023-04-17T02:40:57.708Z,8.96
2023-04-17T02:42:02.012Z,8.91
2023-04-17T02:43:04.821Z,8.89
2023-04-17T02:44:07.086Z,8.90
2023-04-17T02:45:10.400Z,8.91
2023-04-17T02:46:12.640Z,8.94
2023-04-17T02:47:14.873Z,8.84
2023-04-17T02:48:17.911Z,8.82
2023-04-17T02:49:20.168Z,8.83
2023-04-17T02:50:22.508Z,8.83
2023-04-17T02:51:35.684Z,8.90
2023-04-17T02:52:38.043Z,8.90
2023-04-17T02:53:41.116Z,8.91
2023-04-17T02:54:43.476Z,8.89
2023-04-17T02:55:46.505Z,8.92
2023-04-17T02:56:52.916Z,8.89
2023-04-17T02:57:55.290Z,8.92
2023-04-17T02:58:57.506Z,8.80
2023-04-17T03:00:01.346Z,8.80
2023-04-17T03:01:04.191Z,8.71
2023-04-17T03:02:11.437Z,8.64
2023-04-17T03:03:14.039Z,8.63
2023-04-17T03:04:16.596Z,8.56
2023-04-17T03:05:20.275Z,8.63
2023-04-17T03:06:24.066Z,8.66
2023-04-17T03:07:27.476Z,8.59
2023-04-17T03:08:32.571Z,8.63
2023-04-17T03:09:35.317Z,8.66
2023-04-17T03:10:39.371Z,8.61
2023-04-17T03:11:41.514Z,8.65
2023-04-17T03:12:43.720Z,8.64
2023-04-17T03:13:48.985Z,8.63
2023-04-17T03:14:51.927Z,8.67
2023-04-17T03:15:54.083Z,8.62
2023-04-17T03:16:56.648Z,8.71
2023-04-17T03:17:59.048Z,8.64
2023-04-17T03:19:03.132Z,8.69
2023-04-17T03:20:07.535Z,8.68
2023-04-17T03:21:09.937Z,8.68
2023-04-17T03:22:13.391Z,8.68
2023-04-17T03:23:16.014Z,8.73
2023-04-17T03:24:18.199Z,8.69
2023-04-17T03:25:20.512Z,8.66
2023-04-17T03:26:29.593Z,8.60
2023-04-17T03:27:34.249Z,8.58
2023-04-17T03:28:36.980Z,8.58
2023-04-17T03:29:39.879Z,8.60
2023-04-17T03:30:42.134Z,8.63
2023-04-17T03:31:44.703Z,8.66
2023-04-17T03:32:47.263Z,8.66
2023-04-17T03:33:49.897Z,8.65
2023-04-17T03:34:52.466Z,8.67
2023-04-17T03:35:54.680Z,8.64
2023-04-17T03:36:57.092Z,8.64
2023-04-17T03:37:59.266Z,8.65
2023-04-17T03:39:01.671Z,8.64
2023-04-17T03:40:06.439Z,8.65
2023-04-17T03:41:08.895Z,8.63
2023-04-17T03:42:14.393Z,8.64
2023-04-17T03:43:16.543Z,8.60
2023-04-17T03:44:19.146Z,8.60
2023-04-17T03:45:21.296Z,8.60
2023-04-17T03:46:23.530Z,8.51
2023-04-17T03:47:25.829Z,8.55
2023-04-17T03:48:28.061Z,8.61
2023-04-17T03:49:30.438Z,8.58
2023-04-17T03:50:32.650Z,8.68
2023-04-17T03:51:35.792Z,8.68
2023-04-17T03:52:46.515Z,8.67
2023-04-17T03:53:49.286Z,8.63
2023-04-17T03:54:51.734Z,8.63
2023-04-17T03:55:54.176Z,8.65
2023-04-17T03:57:03.942Z,8.62
2023-04-17T03:58:06.882Z,8.71
2023-04-17T03:59:09.476Z,8.74
2023-04-17T04:00:17.216Z,8.67
2023-04-17T04:01:28.284Z,8.62
2023-04-17T04:02:48.071Z,8.66
2023-04-17T04:03:55.584Z,8.62
2023-04-17T04:04:58.499Z,8.66
2023-04-17T04:06:00.731Z,8.66
2023-04-17T04:07:03.725Z,8.69
2023-04-17T04:08:06.233Z,8.70
2023-04-17T04:09:20.691Z,8.66
2023-04-17T04:10:23.097Z,8.67
2023-04-17T04:11:25.417Z,8.54
2023-04-17T04:12:27.743Z,8.55
2023-04-17T04:13:29.916Z,8.60
2023-04-17T04:14:35.418Z,8.56
2023-04-17T04:15:39.120Z,8.53
2023-04-17T04:16:42.182Z,8.62
2023-04-17T04:17:46.994Z,8.60
2023-04-17T04:18:49.349Z,8.61
2023-04-17T04:19:53.188Z,8.64
2023-04-17T04:20:55.743Z,8.61
2023-04-17T04:22:10.307Z,8.63
2023-04-17T04:23:21.188Z,8.63
2023-04-17T04:24:25.468Z,8.55
2023-04-17T04:25:28.635Z,8.57
2023-04-17T04:26:49.476Z,8.55
2023-04-17T04:27:53.538Z,8.52
2023-04-17T04:29:00.394Z,8.51
2023-04-17T04:30:14.037Z,8.47
2023-04-17T04:31:18.759Z,8.49
2023-04-17T04:32:21.965Z,8.48
2023-04-17T04:33:25.658Z,8.46
2023-04-17T04:34:29.807Z,8.55
2023-04-17T04:35:32.023Z,8.57
2023-04-17T04:36:36.315Z,8.60
2023-04-17T04:37:47.862Z,8.64
2023-04-17T04:38:50.336Z,8.65
2023-04-17T04:40:02.066Z,8.68
2023-04-17T04:41:09.942Z,8.67
2023-04-17T04:42:13.476Z,8.63
2023-04-17T04:43:32.064Z,8.63
2023-04-17T04:44:34.242Z,8.70
2023-04-17T04:45:36.859Z,8.69
2023-04-17T04:46:39.974Z,8.71
2023-04-17T04:47:42.618Z,8.74
2023-04-17T04:48:44.840Z,8.75
2023-04-17T04:49:47.973Z,8.81
2023-04-17T04:50:53.348Z,8.79
2023-04-17T04:51:55.943Z,8.81
2023-04-17T04:53:03.838Z,8.82
2023-04-17T04:54:17.507Z,8.78
2023-04-17T04:55:26.588Z,8.79
2023-04-17T04:56:32.952Z,8.77
2023-04-17T04:57:36.285Z,8.79
2023-04-17T04:58:38.771Z,8.78
2023-04-17T04:59:41.160Z,8.85
2023-04-17T05:01:09.486Z,8.88
2023-04-17T05:02:16.299Z,8.83
2023-04-17T05:03:19.440Z,8.81
2023-04-17T05:04:23.066Z,8.81
2023-04-17T05:05:29.766Z,8.89
2023-04-17T05:06:32.042Z,8.86
2023-04-17T05:07:38.263Z,8.53
2023-04-17T05:08:42.858Z,8.58
2023-04-17T05:09:47.568Z,8.67
2023-04-17T05:10:51.802Z,8.73
2023-04-17T05:11:54.054Z,8.74
2023-04-17T05:12:57.088Z,8.56
2023-04-17T05:13:59.286Z,8.56
2023-04-17T05:15:05.326Z,8.69
2023-04-17T05:16:08.322Z,8.81
2023-04-17T05:17:10.575Z,8.82
2023-04-17T05:18:12.704Z,8.84
2023-04-17T05:19:16.419Z,8.91
2023-04-17T05:20:28.446Z,8.96
2023-04-17T05:21:33.863Z,8.96
2023-04-17T05:22:38.176Z,8.96
2023-04-17T05:23:44.753Z,8.92
2023-04-17T05:24:46.960Z,9.01
2023-04-17T05:25:49.437Z,9.00
2023-04-17T05:26:53.429Z,9.06
2023-04-17T05:27:55.959Z,9.11
2023-04-17T05:28:58.191Z,9.11
2023-04-17T05:30:05.150Z,9.09
2023-04-17T05:31:07.822Z,9.00
2023-04-17T05:32:14.533Z,9.03
2023-04-17T05:33:26.534Z,9.09
2023-04-17T05:34:32.505Z,9.03
2023-04-17T05:35:35.726Z,9.05
2023-04-17T05:36:37.883Z,9.02
2023-04-17T05:37:40.897Z,8.98
2023-04-17T05:38:45.501Z,8.92
2023-04-17T05:39:48.354Z,8.96
2023-04-17T05:40:52.349Z,9.00
2023-04-17T05:41:54.562Z,8.92
2023-04-17T05:42:56.749Z,8.90
2023-04-17T05:43:59.699Z,8.91
2023-04-17T05:45:03.515Z,8.89
2023-04-17T05:46:05.988Z,8.87
2023-04-17T05:47:08.213Z,8.89
2023-04-17T05:48:12.118Z,8.94
2023-04-17T05:49:14.336Z,8.92
2023-04-17T05:50:16.730Z,8.88
2023-04-17T05:51:18.930Z,8.95
2023-04-17T05:52:21.102Z,8.95
2023-04-17T05:53:23.921Z,8.95
2023-04-17T05:54:30.912Z,8.89
2023-04-17T05:55:34.325Z,8.94
2023-04-17T05:56:39.175Z,8.97
2023-04-17T05:57:41.427Z,8.99
2023-04-17T05:58:43.659Z,8.88
2023-04-17T05:59:46.181Z,8.85
2023-04-17T06:00:49.320Z,8.89
2023-04-17T06:01:53.578Z,8.92
2023-04-17T06:02:57.650Z,8.98
2023-04-17T06:04:08.272Z,9.12
2023-04-17T06:05:10.980Z,9.16
2023-04-17T06:06:13.433Z,9.11
2023-04-17T06:07:16.017Z,9.22
2023-04-17T06:08:18.229Z,9.26
2023-04-17T06:09:21.351Z,9.36
2023-04-17T06:10:24.817Z,9.39
2023-04-17T06:11:27.148Z,9.37
2023-04-17T06:12:29.439Z,9.45
2023-04-17T06:13:32.102Z,9.42
2023-04-17T06:14:34.685Z,9.46
2023-04-17T06:15:40.928Z,9.57
2023-04-17T06:16:44.368Z,9.58
2023-04-17T06:17:46.648Z,9.61
2023-04-17T06:18:48.795Z,9.68
2023-04-17T06:19:51.533Z,9.70
2023-04-17T06:20:53.700Z,9.72
2023-04-17T06:21:56.358Z,9.73
2023-04-17T06:22:58.702Z,9.64
2023-04-17T06:24:00.994Z,9.64
2023-04-17T06:25:03.582Z,9.65
2023-04-17T06:26:06.661Z,9.53
2023-04-17T06:27:09.949Z,9.45
2023-04-17T06:28:12.437Z,9.44
2023-04-17T06:29:15.522Z,9.22
2023-04-17T06:30:19.174Z,9.21
2023-04-17T06:31:27.631Z,9.26
2023-04-17T06:32:30.474Z,9.20
2023-04-17T06:33:32.914Z,9.40
2023-04-17T06:34:38.174Z,9.42
2023-04-17T06:35:45.915Z,9.21
2023-04-17T06:37:00.560Z,9.11
2023-04-17T06:38:03.178Z,9.04
2023-04-17T06:39:05.954Z,9.18
2023-04-17T06:40:08.947Z,9.22
2023-04-17T06:41:11.193Z,9.31
2023-04-17T06:42:16.472Z,9.48
2023-04-17T06:43:18.667Z,9.39
2023-04-17T06:44:20.874Z,9.47
2023-04-17T06:45:24.768Z,9.64
2023-04-17T06:46:26.974Z,9.71
2023-04-17T06:47:29.577Z,9.64
2023-04-17T06:48:32.545Z,9.36
2023-04-17T06:49:36.285Z,9.38
2023-04-17T06:50:38.587Z,9.49
2023-04-17T06:51:45.655Z,9.57
2023-04-17T06:52:47.816Z,9.69
2023-04-17T06:53:50.071Z,9.56
2023-04-17T06:54:56.097Z,9.32
2023-04-17T06:55:58.390Z,9.41
2023-04-17T06:57:00.821Z,9.20
2023-04-17T06:58:04.212Z,9.46
2023-04-17T06:59:07.001Z,9.66
2023-04-17T07:00:09.998Z,9.63
2023-04-17T07:01:14.016Z,9.51
2023-04-17T07:02:16.472Z,9.25
2023-04-17T07:03:19.079Z,9.27
2023-04-17T07:04:21.489Z,9.13
2023-04-17T07:05:23.858Z,9.26
2023-04-17T07:06:26.602Z,9.14
2023-04-17T07:07:30.676Z,9.33
2023-04-17T07:08:33.101Z,9.16
2023-04-17T07:09:35.466Z,9.23
2023-04-17T07:10:37.634Z,9.38
2023-04-17T07:11:39.827Z,9.51
2023-04-17T07:12:41.972Z,9.45
2023-04-17T07:13:44.096Z,9.26
2023-04-17T07:14:46.426Z,9.27
2023-04-17T07:15:54.024Z,9.15
2023-04-17T07:16:56.271Z,9.25
2023-04-17T07:17:58.632Z,9.50
2023-04-17T07:19:00.839Z,9.70
2023-04-17T07:20:05.419Z,9.79
2023-04-17T07:21:07.713Z,9.67
2023-04-17T07:22:10.046Z,9.58
2023-04-17T07:23:12.319Z,9.41
2023-04-17T07:24:14.537Z,9.28
2023-04-17T07:25:16.741Z,9.58
2023-04-17T07:26:18.962Z,9.81
2023-04-17T07:27:21.873Z,9.92
2023-04-17T07:28:24.995Z,10.18
2023-04-17T07:29:27.271Z,10.10
2023-04-17T07:30:29.529Z,9.76
2023-04-17T07:31:31.973Z,9.60
2023-04-17T07:32:34.347Z,9.57
2023-04-17T07:33:40.009Z,9.60
2023-04-17T07:34:42.898Z,9.78
2023-04-17T07:35:45.109Z,9.93
2023-04-17T07:36:49.592Z,9.98
2023-04-17T07:37:51.829Z,10.15
2023-04-17T07:38:54.146Z,10.22
2023-04-17T07:39:56.316Z,10.40
2023-04-17T07:40:58.813Z,10.30
2023-04-17T07:42:02.927Z,10.31
2023-04-17T07:43:05.328Z,10.20
2023-04-17T07:44:07.515Z,9.88
2023-04-17T07:45:10.568Z,10.19
2023-04-17T07:46:12.884Z,10.27
2023-04-17T07:47:15.347Z,9.95
2023-04-17T07:48:18.966Z,10.21
2023-04-17T07:49:21.121Z,10.33
2023-04-17T07:50:23.618Z,10.59
2023-04-17T07:51:26.206Z,10.36
2023-04-17T07:52:28.870Z,10.03
2023-04-17T07:53:31.377Z,9.96
2023-04-17T07:54:33.662Z,10.11
2023-04-17T07:55:35.919Z,10.44
2023-04-17T07:56:38.189Z,10.67
2023-04-17T07:57:42.672Z,10.78
2023-04-17T07:58:51.677Z,10.82
2023-04-17T07:59:53.885Z,10.47
2023-04-17T08:00:56.122Z,10.33
2023-04-17T08:01:58.542Z,10.16
2023-04-17T08:03:02.023Z,10.06
2023-04-17T08:04:04.964Z,9.91
2023-04-17T08:05:08.026Z,9.77
2023-04-17T08:06:11.343Z,9.69
2023-04-17T08:07:14.317Z,9.92
2023-04-17T08:08:16.452Z,10.21
2023-04-17T08:09:18.747Z,10.04
2023-04-17T08:10:20.971Z,10.07
2023-04-17T08:11:23.166Z,10.37
2023-04-17T08:12:25.379Z,10.06
2023-04-17T08:13:30.892Z,10.29
2023-04-17T08:14:33.136Z,10.50
2023-04-17T08:15:40.954Z,10.67
2023-04-17T08:16:44.458Z,10.65
2023-04-17T08:17:46.645Z,10.89
2023-04-17T08:18:48.880Z,10.98
2023-04-17T08:19:53.398Z,10.56
2023-04-17T08:20:55.594Z,10.59
2023-04-17T08:22:03.380Z,10.19
2023-04-17T08:23:05.975Z,10.13
2023-04-17T08:24:08.234Z,9.86
2023-04-17T08:25:11.181Z,9.97
2023-04-17T08:26:13.513Z,10.11
2023-04-17T08:27:15.901Z,10.49
2023-04-17T08:28:18.274Z,10.72
2023-04-17T08:29:20.628Z,10.92
2023-04-17T08:30:23.923Z,11.02
2023-04-17T08:31:26.595Z,11.18
2023-04-17T08:32:29.023Z,10.97
2023-04-17T08:33:31.544Z,10.66
2023-04-17T08:34:34.105Z,10.74
2023-04-17T08:35:36.690Z,10.50
2023-04-17T08:36:38.889Z,10.47
2023-04-17T08:37:42.207Z,10.32
2023-04-17T08:38:45.128Z,10.23
2023-04-17T08:39:52.245Z,10.37
2023-04-17T08:40:59.047Z,10.32
2023-04-17T08:42:06.740Z,10.51
2023-04-17T08:43:16.743Z,10.42
2023-04-17T08:44:21.402Z,10.60
2023-04-17T08:45:24.616Z,11.11
2023-04-17T08:46:27.655Z,11.57
2023-04-17T08:47:29.937Z,11.28
2023-04-17T08:48:32.241Z,10.93
2023-04-17T08:49:35.599Z,10.88
2023-04-17T08:50:37.908Z,11.07
2023-04-17T08:51:40.538Z,11.21
2023-04-17T08:52:44.593Z,11.09
2023-04-17T08:53:46.776Z,11.16
2023-04-17T08:54:51.270Z,11.55
2023-04-17T08:55:53.705Z,11.69
2023-04-17T08:56:57.530Z,11.85
2023-04-17T08:58:03.481Z,11.66
2023-04-17T08:59:05.726Z,11.54
2023-04-17T09:00:12.113Z,11.29
2023-04-17T09:01:19.884Z,11.46
2023-04-17T09:02:23.235Z,11.90
2023-04-17T09:03:43.080Z,11.87
2023-04-17T09:04:47.133Z,11.60
2023-04-17T09:05:49.487Z,11.22
2023-04-17T09:06:54.129Z,11.34
2023-04-17T09:08:17.585Z,11.20
2023-04-17T09:09:19.799Z,11.09
2023-04-17T09:10:38.491Z,11.25
2023-04-17T09:11:40.729Z,11.08
2023-04-17T09:12:59.300Z,11.39
2023-04-17T09:14:01.558Z,11.30
2023-04-17T09:15:16.328Z,11.15
2023-04-17T09:16:21.864Z,11.03
2023-04-17T09:17:34.819Z,11.23
2023-04-17T09:18:37.999Z,11.70
2023-04-17T09:20:11.944Z,11.21
2023-04-17T09:21:16.716Z,11.48
2023-04-17T09:22:21.109Z,11.49
2023-04-17T09:23:23.675Z,11.66
2023-04-17T09:24:36.284Z,11.64
2023-04-17T09:25:38.517Z,11.37
2023-04-17T09:26:40.728Z,11.42
2023-04-17T09:27:43.141Z,11.33
2023-04-17T09:29:14.570Z,11.13
2023-04-17T09:30:17.197Z,11.01
2023-04-17T09:31:19.389Z,11.44
2023-04-17T09:32:21.681Z,11.13
2023-04-17T09:33:23.983Z,11.17
2023-04-17T09:34:26.150Z,11.62
2023-04-17T09:35:28.396Z,11.85
2023-04-17T09:36:33.045Z,12.09
2023-04-17T09:37:53.136Z,12.36
2023-04-17T09:38:55.929Z,12.42
2023-04-17T09:40:00.007Z,12.55
2023-04-17T09:41:02.323Z,12.58
2023-04-17T09:42:06.148Z,12.64
2023-04-17T09:43:10.576Z,12.78
2023-04-17T09:44:25.623Z,12.70
2023-04-17T09:45:35.558Z,12.69
2023-04-17T09:46:45.814Z,12.65
2023-04-17T09:47:48.774Z,12.65
2023-04-17T09:48:51.225Z,12.64
2023-04-17T09:49:53.925Z,12.70
2023-04-17T09:50:56.758Z,12.28
2023-04-17T09:51:59.379Z,12.09
2023-04-17T09:53:02.888Z,12.28
2023-04-17T09:54:06.955Z,12.42
2023-04-17T09:55:11.281Z,12.40
2023-04-17T09:56:13.619Z,12.21
2023-04-17T09:57:16.439Z,12.06
2023-04-17T09:58:18.993Z,11.81
2023-04-17T09:59:22.766Z,12.09
2023-04-17T10:00:29.436Z,12.02
2023-04-17T10:01:33.788Z,12.25
2023-04-17T10:02:36.638Z,12.48
2023-04-17T10:03:40.310Z,12.13
2023-04-17T10:04:44.787Z,11.79
2023-04-17T10:05:47.300Z,12.18
2023-04-17T10:06:50.284Z,11.93
2023-04-17T10:07:52.732Z,12.16
2023-04-17T10:08:55.097Z,12.50
2023-04-17T10:09:57.223Z,12.34
2023-04-17T10:11:05.922Z,12.34
2023-04-17T10:12:13.291Z,12.17
2023-04-17T10:13:16.627Z,12.09
2023-04-17T10:14:32.613Z,12.52
2023-04-17T10:15:35.513Z,13.01
2023-04-17T10:16:40.000Z,12.75
2023-04-17T10:17:42.417Z,12.54
2023-04-17T10:18:44.683Z,12.58
2023-04-17T10:19:46.984Z,12.14
2023-04-17T10:20:50.492Z,12.17
2023-04-17T10:22:14.230Z,12.56
2023-04-17T10:23:30.687Z,12.58
2023-04-17T10:24:32.866Z,12.46
2023-04-17T10:25:35.330Z,12.48
2023-04-17T10:26:37.881Z,12.10
2023-04-17T10:27:42.672Z,12.09
2023-04-17T10:28:49.356Z,11.93
2023-04-17T10:29:52.156Z,12.16
2023-04-17T10:30:55.190Z,12.44
2023-04-17T10:32:09.959Z,12.19
2023-04-17T10:33:15.750Z,12.06
2023-04-17T10:34:51.804Z,11.78
2023-04-17T10:35:54.154Z,11.57
2023-04-17T10:36:56.558Z,11.55
2023-04-17T10:38:03.690Z,11.86
2023-04-17T10:39:16.641Z,11.99
2023-04-17T10:40:25.792Z,11.62
2023-04-17T10:41:31.856Z,11.75
2023-04-17T10:42:34.069Z,11.50
2023-04-17T10:43:40.775Z,11.57
2023-04-17T10:44:45.404Z,11.55
2023-04-17T10:46:01.705Z,11.67
2023-04-17T10:47:07.624Z,11.85
2023-04-17T10:48:20.473Z,11.89
2023-04-17T10:49:22.743Z,11.92
2023-04-17T10:50:28.593Z,11.87
2023-04-17T10:51:32.107Z,11.87
2023-04-17T10:52:41.434Z,11.86
2023-04-17T10:53:44.776Z,12.10
2023-04-17T10:55:07.770Z,12.02
2023-04-17T10:56:24.318Z,11.86
2023-04-17T10:57:53.965Z,11.94
2023-04-17T10:58:57.735Z,11.91
2023-04-17T11:00:13.938Z,11.74
2023-04-17T11:01:16.339Z,11.70
2023-04-17T11:02:33.886Z,11.79
2023-04-17T11:03:37.434Z,11.72
2023-04-17T11:04:39.910Z,11.89
2023-04-17T11:05:48.396Z,11.81
2023-04-17T11:06:55.443Z,11.80
2023-04-17T11:07:59.092Z,12.17
2023-04-17T11:09:01.448Z,12.42
2023-04-17T11:10:06.973Z,12.39
2023-04-17T11:11:11.939Z,12.53
2023-04-17T11:12:14.167Z,12.59
2023-04-17T11:13:16.494Z,12.76
2023-04-17T11:14:21.433Z,12.42
2023-04-17T11:15:27.692Z,12.28
2023-04-17T11:16:29.877Z,12.24
2023-04-17T11:17:32.511Z,11.83
2023-04-17T11:18:34.750Z,11.69
2023-04-17T11:19:37.062Z,11.78
2023-04-17T11:20:40.773Z,11.83
2023-04-17T11:21:44.098Z,11.83
2023-04-17T11:22:46.350Z,12.00
2023-04-17T11:23:54.682Z,11.83
2023-04-17T11:24:59.958Z,11.91
2023-04-17T11:26:02.200Z,11.84
2023-04-17T11:27:04.678Z,11.88
2023-04-17T11:28:07.133Z,11.91
2023-04-17T11:29:17.264Z,11.70
2023-04-17T11:30:28.237Z,11.47
2023-04-17T11:31:30.535Z,11.47
2023-04-17T11:32:36.440Z,11.47
2023-04-17T11:33:39.215Z,11.88
2023-04-17T11:34:41.799Z,11.68
2023-04-17T11:35:44.023Z,11.56
2023-04-17T11:36:57.634Z,11.56
2023-04-17T11:38:20.582Z,11.86
2023-04-17T11:39:24.958Z,11.91
2023-04-17T11:40:30.342Z,11.93
2023-04-17T11:41:39.417Z,11.76
2023-04-17T11:42:45.792Z,11.74
2023-04-17T11:43:51.176Z,11.96
2023-04-17T11:45:04.217Z,12.00
2023-04-17T11:46:06.796Z,12.07
2023-04-17T11:47:08.949Z,12.13
2023-04-17T11:48:12.801Z,12.24
2023-04-17T11:49:14.986Z,12.38
2023-04-17T11:50:17.771Z,12.34
2023-04-17T11:51:20.535Z,12.21
2023-04-17T11:52:22.816Z,12.32
2023-04-17T11:53:26.155Z,12.48
2023-04-17T11:54:34.881Z,12.84
2023-04-17T11:55:37.047Z,12.84
2023-04-17T11:56:39.159Z,12.95
2023-04-17T11:57:45.183Z,13.13
2023-04-17T11:59:08.804Z,13.12
2023-04-17T12:00:14.802Z,12.90
2023-04-17T12:01:21.117Z,13.05
2023-04-17T12:02:33.460Z,12.88
2023-04-17T12:03:36.344Z,12.75
2023-04-17T12:04:39.971Z,12.80
2023-04-17T12:05:42.545Z,12.81
2023-04-17T12:06:44.704Z,12.92
2023-04-17T12:07:46.879Z,12.63
2023-04-17T12:08:51.343Z,12.61
2023-04-17T12:09:57.825Z,12.40
2023-04-17T12:11:00.285Z,12.62
2023-04-17T12:12:06.839Z,13.00
2023-04-17T12:13:11.319Z,12.89
2023-04-17T12:14:13.893Z,12.72
2023-04-17T12:15:16.274Z,12.57
2023-04-17T12:16:18.660Z,12.47
2023-04-17T12:17:21.138Z,12.35
2023-04-17T12:18:23.420Z,12.35
2023-04-17T12:19:27.933Z,12.30
2023-04-17T12:20:30.143Z,12.32
2023-04-17T12:21:32.347Z,12.24
2023-04-17T12:22:34.525Z,12.35
2023-04-17T12:23:36.709Z,12.07
2023-04-17T12:24:38.900Z,12.00
2023-04-17T12:25:41.068Z,12.02
2023-04-17T12:26:47.377Z,12.10
2023-04-17T12:27:49.561Z,12.15
2023-04-17T12:28:51.897Z,12.48
2023-04-17T12:29:54.035Z,12.56
2023-04-17T12:30:56.412Z,12.59
2023-04-17T12:31:58.681Z,12.81
2023-04-17T12:33:01.426Z,13.02
2023-04-17T12:34:03.570Z,13.06
2023-04-17T12:35:06.205Z,12.82
2023-04-17T12:36:08.916Z,12.58
2023-04-17T12:37:11.507Z,12.67
2023-04-17T12:38:14.131Z,12.40
2023-04-17T12:39:16.706Z,12.34
2023-04-17T12:40:23.041Z,12.31
2023-04-17T12:41:26.809Z,12.17
2023-04-17T12:42:31.447Z,12.35
2023-04-17T12:43:35.957Z,12.31
2023-04-17T12:44:39.719Z,12.29
2023-04-17T12:45:45.353Z,12.29
2023-04-17T12:46:47.650Z,12.48
2023-04-17T12:47:49.902Z,12.53
2023-04-17T12:48:58.237Z,12.44
2023-04-17T12:50:00.796Z,12.38
2023-04-17T12:51:03.097Z,12.07
2023-04-17T12:52:05.333Z,12.02
2023-04-17T12:53:08.138Z,12.09
2023-04-17T12:54:10.389Z,12.05
2023-04-17T12:55:12.773Z,12.02
2023-04-17T12:56:15.009Z,12.16
2023-04-17T12:57:17.292Z,11.95
2023-04-17T12:58:19.425Z,11.96
2023-04-17T12:59:21.937Z,12.00
2023-04-17T13:00:24.236Z,11.98
2023-04-17T13:01:27.232Z,12.20
2023-04-17T13:02:29.648Z,12.29
2023-04-17T13:03:32.109Z,12.14
2023-04-17T13:04:34.602Z,11.90
2023-04-17T13:05:37.009Z,11.87
2023-04-17T13:06:39.179Z,11.90
2023-04-17T13:07:41.573Z,11.97
2023-04-17T13:08:43.787Z,12.20
2023-04-17T13:09:46.554Z,12.18
2023-04-17T13:10:48.844Z,12.14
2023-04-17T13:11:51.109Z,12.12
2023-04-17T13:12:53.333Z,12.47
2023-04-17T13:13:55.675Z,12.55
2023-04-17T13:14:57.953Z,12.40
2023-04-17T13:16:00.159Z,12.24
2023-04-17T13:17:02.716Z,12.31
2023-04-17T13:18:05.272Z,12.58
2023-04-17T13:19:07.544Z,12.50
2023-04-17T13:20:10.951Z,12.82
2023-04-17T13:21:13.097Z,12.89
2023-04-17T13:22:16.072Z,13.05
2023-04-17T13:23:18.283Z,13.15
2023-04-17T13:24:20.593Z,13.23
2023-04-17T13:25:22.833Z,13.33
2023-04-17T13:26:25.031Z,12.81
2023-04-17T13:27:27.252Z,12.66
2023-04-17T13:28:29.440Z,12.46
2023-04-17T13:29:31.685Z,12.44
2023-04-17T13:30:36.857Z,12.37
2023-04-17T13:31:39.102Z,12.50
2023-04-17T13:32:42.766Z,12.55
2023-04-17T13:33:44.958Z,12.25
2023-04-17T13:34:47.269Z,12.19
2023-04-17T13:35:50.989Z,12.21
2023-04-17T13:36:54.572Z,12.09
2023-04-17T13:38:00.690Z,11.88
2023-04-17T13:39:02.876Z,11.93
2023-04-17T13:40:06.695Z,12.34
2023-04-17T13:41:08.906Z,12.60
2023-04-17T13:42:15.084Z,12.67
2023-04-17T13:43:17.328Z,12.54
2023-04-17T13:44:19.579Z,12.24
2023-04-17T13:45:21.863Z,12.51
2023-04-17T13:46:24.177Z,12.69
2023-04-17T13:47:26.486Z,12.77
2023-04-17T13:48:28.627Z,12.94
2023-04-17T13:49:30.884Z,13.01
2023-04-17T13:50:33.141Z,13.06
2023-04-17T13:51:35.429Z,12.51
2023-04-17T13:52:37.712Z,12.41
2023-04-17T13:53:40.230Z,12.20
2023-04-17T13:54:42.389Z,12.14
2023-04-17T13:55:44.624Z,12.32
2023-04-17T13:56:46.774Z,12.35
2023-04-17T13:57:49.013Z,12.62
2023-04-17T13:58:52.213Z,12.56
2023-04-17T13:59:54.390Z,12.71
2023-04-17T14:00:56.601Z,12.81
2023-04-17T14:02:01.425Z,12.58